Time;durP1;ratioP1;P1;durP2;ratioP2;P2;SDS_P1;SDS_P2;PMS_P1;PMS_P2;Temp;Humidity;BMP_temperature;BMP_pressure;BME280_temperature;BME280_humidity;BME280_pressure;Samples;Min_cycle;Max_cycle;Signal;HPM_P1;HPM_P2
2021/12/28 00:02:15;;;;;;;58.45;39.88;;;3.50;99.90;;;;;;5083322;28;20048;-70
2021/12/28 00:04:40;;;;;;;53.22;37.83;;;3.50;99.90;;;;;;5073820;28;20056;-69
2021/12/28 00:07:06;;;;;;;61.97;40.20;;;3.50;99.90;;;;;;5071579;28;20497;-70
2021/12/28 00:09:32;;;;;;;61.97;41.53;;;3.50;99.90;;;;;;5067680;28;20051;-70
2021/12/28 00:11:57;;;;;;;59.95;40.72;;;3.50;99.90;;;;;;5061959;28;20056;-70
2021/12/28 00:14:29;;;;;;;59.75;41.08;;;3.50;99.90;;;;;;5072252;28;20037;-70
2021/12/28 00:19:39;;;;;;;68.30;44.30;;;3.60;99.90;;;;;;5067813;28;20056;-70
2021/12/28 00:22:05;;;;;;;73.82;45.97;;;3.50;99.90;;;;;;5071520;28;20091;-69
2021/12/28 00:24:31;;;;;;;69.85;47.00;;;3.60;99.90;;;;;;5060213;28;20533;-70
2021/12/28 00:26:56;;;;;;;75.88;47.65;;;3.60;99.90;;;;;;5072254;28;20049;-70
2021/12/28 00:29:22;;;;;;;74.18;47.95;;;3.70;99.90;;;;;;5071151;28;20045;-69
2021/12/28 00:31:48;;;;;;;75.45;47.42;;;3.70;99.90;;;;;;5068729;28;20052;-70
2021/12/28 00:34:13;;;;;;;84.65;50.42;;;3.80;99.90;;;;;;5070261;28;20036;-69
2021/12/28 00:36:39;;;;;;;77.90;49.47;;;3.80;99.90;;;;;;5071154;28;20389;-69
2021/12/28 00:39:05;;;;;;;84.80;51.75;;;3.90;99.90;;;;;;5053186;28;20147;-70
2021/12/28 00:41:31;;;;;;;85.13;52.30;;;3.90;99.90;;;;;;5069510;28;20087;-69
2021/12/28 00:43:56;;;;;;;84.50;50.95;;;3.90;99.90;;;;;;5059133;28;20119;-70
2021/12/28 00:46:22;;;;;;;91.10;51.75;;;3.90;99.90;;;;;;5068156;28;20048;-70
2021/12/28 00:48:48;;;;;;;82.35;49.20;;;3.90;99.90;;;;;;5071613;28;20123;-69
2021/12/28 00:51:13;;;;;;;87.85;51.33;;;3.90;99.90;;;;;;5077395;28;20449;-69
2021/12/28 00:53:39;;;;;;;85.45;49.75;;;3.90;99.90;;;;;;5066250;28;20052;-69
2021/12/28 00:56:05;;;;;;;91.80;46.90;;;3.90;99.90;;;;;;5067935;28;20044;-69
2021/12/28 00:58:32;;;;;;;81.85;50.08;;;3.90;99.90;;;;;;5065473;28;20499;-69
2021/12/28 01:00:57;;;;;;;90.13;52.65;;;3.90;99.90;;;;;;5071541;28;20581;-69
2021/12/28 01:03:23;;;;;;;83.20;49.50;;;3.90;99.90;;;;;;5070605;28;20056;-69
2021/12/28 01:05:50;;;;;;;90.70;51.22;;;4.00;99.90;;;;;;5070552;28;20123;-69
2021/12/28 01:08:16;;;;;;;83.97;52.58;;;4.00;99.90;;;;;;5066315;28;20043;-69
2021/12/28 01:10:49;;;;;;;87.63;52.00;;;4.10;99.90;;;;;;5064744;28;20512;-69
2021/12/28 01:13:15;;;;;;;104.75;57.50;;;4.10;99.90;;;;;;5088218;28;20451;-69
2021/12/28 01:15:41;;;;;;;96.28;52.80;;;4.20;99.90;;;;;;5084954;28;20048;-69
2021/12/28 01:18:07;;;;;;;97.65;57.13;;;4.20;99.90;;;;;;5071063;28;20049;-70
2021/12/28 01:20:33;;;;;;;108.32;59.78;;;4.30;99.90;;;;;;5068817;28;20079;-70
2021/12/28 01:22:59;;;;;;;109.10;61.22;;;4.30;99.90;;;;;;5069227;28;20068;-70
2021/12/28 01:25:26;;;;;;;111.75;62.58;;;4.30;99.90;;;;;;5069446;28;20051;-70
2021/12/28 01:27:52;;;;;;;152.43;69.75;;;4.40;99.90;;;;;;5069412;28;20104;-70
2021/12/28 01:30:20;;;;;;;210.70;84.13;;;4.40;99.90;;;;;;5068602;28;20040;-70
2021/12/28 01:32:47;;;;;;;;;;;4.40;99.90;;;;;;5070315;28;20049;-70
2021/12/28 01:35:14;;;;;;;322.00;95.82;;;4.30;99.90;;;;;;5067248;28;19920;-70
2021/12/28 01:37:41;;;;;;;311.85;95.13;;;4.20;99.90;;;;;;5052163;28;20047;-70
2021/12/28 01:40:10;;;;;;;292.88;96.93;;;4.10;99.90;;;;;;5069149;28;20131;-70
2021/12/28 01:42:54;;;;;;;208.05;80.30;;;4.00;99.90;;;;;;5052679;28;20076;-70
2021/12/28 01:45:44;;;;;;;275.95;93.20;;;4.00;99.90;;;;;;5068411;28;20048;-70
2021/12/28 01:48:14;;;;;;;220.27;87.25;;;4.00;99.90;;;;;;5058469;28;20063;-69
2021/12/28 01:50:40;;;;;;;246.50;92.85;;;4.10;99.90;;;;;;5068181;28;20053;-70
2021/12/28 01:53:09;;;;;;;230.00;88.30;;;4.20;99.90;;;;;;5069699;28;20048;-70
2021/12/28 01:55:37;;;;;;;275.80;100.15;;;4.30;99.90;;;;;;5067427;28;20846;-70
2021/12/28 01:58:04;;;;;;;210.25;91.20;;;4.40;99.90;;;;;;5067423;28;20742;-70
2021/12/28 02:00:29;;;;;;;194.90;88.88;;;4.40;99.90;;;;;;5069440;28;20067;-70
2021/12/28 02:02:55;;;;;;;233.40;90.88;;;4.50;99.90;;;;;;5058721;28;20162;-70
2021/12/28 02:05:21;;;;;;;509.65;138.32;;;4.60;99.90;;;;;;5052364;28;20068;-70
2021/12/28 02:07:47;;;;;;;487.55;134.52;;;4.60;99.90;;;;;;5083230;28;20381;-70
2021/12/28 02:10:13;;;;;;;661.92;167.13;;;4.60;99.90;;;;;;5067818;28;20082;-70
2021/12/28 02:12:38;;;;;;;524.40;132.13;;;4.60;99.90;;;;;;5068596;28;20640;-70
2021/12/28 02:15:08;;;;;;;745.55;177.80;;;4.50;99.90;;;;;;5067367;28;20432;-70
2021/12/28 02:17:35;;;;;;;883.10;198.70;;;4.50;99.90;;;;;;5065502;28;20103;-70
2021/12/28 02:20:06;;;;;;;532.63;131.10;;;4.40;99.90;;;;;;5068506;28;20504;-70
2021/12/28 02:22:32;;;;;;;757.53;176.50;;;4.40;99.90;;;;;;5068825;28;20049;-70
2021/12/28 02:24:57;;;;;;;556.28;141.25;;;4.30;99.90;;;;;;5070690;28;20048;-70
2021/12/28 02:27:27;;;;;;;699.60;175.13;;;4.30;99.90;;;;;;5072153;28;20040;-70
2021/12/28 02:29:52;;;;;;;435.33;121.95;;;4.40;99.90;;;;;;5051067;28;20072;-70
2021/12/28 02:32:18;;;;;;;470.13;128.35;;;4.40;99.90;;;;;;5080181;28;20048;-70
2021/12/28 02:34:45;;;;;;;701.25;166.52;;;4.50;99.90;;;;;;5073374;28;20044;-70
2021/12/28 02:37:11;;;;;;;577.10;154.60;;;4.50;99.90;;;;;;5066715;28;20059;-70
2021/12/28 02:39:36;;;;;;;700.10;171.27;;;4.60;99.90;;;;;;5068155;28;20042;-70
2021/12/28 02:42:02;;;;;;;383.30;109.68;;;4.60;99.90;;;;;;5068847;28;20066;-70
2021/12/28 02:44:28;;;;;;;986.70;206.93;;;4.60;99.90;;;;;;5081659;28;20055;-70
2021/12/28 02:46:54;;;;;;;915.88;195.68;;;4.60;99.90;;;;;;5071103;28;20047;-70
2021/12/28 02:49:19;;;;;;;897.97;189.63;;;4.50;99.90;;;;;;5069020;28;20047;-70
2021/12/28 02:51:45;;;;;;;554.03;124.40;;;4.50;99.90;;;;;;5082255;28;20429;-70
2021/12/28 02:54:10;;;;;;;764.63;166.50;;;4.40;99.90;;;;;;5071098;28;20044;-70
2021/12/28 02:56:36;;;;;;;661.30;156.85;;;4.40;99.90;;;;;;5066754;28;20054;-70
2021/12/28 02:59:02;;;;;;;701.25;168.52;;;4.40;99.90;;;;;;5065931;28;20410;-70
2021/12/28 03:01:29;;;;;;;803.90;187.23;;;4.50;99.90;;;;;;5066517;28;20063;-70
2021/12/28 03:04:03;;;;;;;859.03;188.02;;;4.50;99.90;;;;;;5064165;28;20052;-70
2021/12/28 03:06:28;;;;;;;239.88;92.30;;;4.60;99.90;;;;;;5066278;28;20084;-70
2021/12/28 03:08:56;;;;;;;248.90;97.20;;;4.80;99.90;;;;;;5067467;28;20076;-70
2021/12/28 03:11:24;;;;;;;200.00;89.10;;;5.10;99.90;;;;;;5067126;28;20053;-70
2021/12/28 03:13:53;;;;;;;198.90;88.85;;;5.30;99.90;;;;;;5059030;28;20037;-70
2021/12/28 03:16:20;;;;;;;321.90;110.90;;;5.50;99.90;;;;;;5066564;28;20382;-70
2021/12/28 03:18:47;;;;;;;204.07;86.18;;;5.60;99.90;;;;;;5055434;28;20044;-70
2021/12/28 03:21:15;;;;;;;249.68;93.38;;;5.60;99.90;;;;;;5061325;28;20053;-70
2021/12/28 03:23:41;;;;;;;253.48;94.93;;;5.60;99.90;;;;;;5068559;28;20056;-70
2021/12/28 03:26:08;;;;;;;251.27;96.00;;;5.60;99.90;;;;;;5067335;28;20099;-70
2021/12/28 03:28:41;;;;;;;197.55;89.05;;;5.60;99.90;;;;;;5064984;28;20052;-70
2021/12/28 03:31:15;;;;;;;198.13;86.78;;;5.60;99.90;;;;;;5066121;28;20133;-70
2021/12/28 03:33:43;;;;;;;204.32;86.78;;;5.70;99.90;;;;;;5067123;28;20052;-70
2021/12/28 03:36:10;;;;;;;;;;;5.80;99.90;;;;;;5070336;28;20037;-70
2021/12/28 03:38:38;;;;;;;218.77;88.35;;;5.80;99.90;;;;;;5066027;28;19921;-70
2021/12/28 03:41:07;;;;;;;;;;;5.80;99.90;;;;;;5067196;28;20041;-70
2021/12/28 03:43:35;;;;;;;351.92;110.07;;;5.90;99.90;;;;;;5063040;28;19924;-70
2021/12/28 03:46:01;;;;;;;830.85;179.77;;;5.90;99.90;;;;;;5064130;28;20164;-70
2021/12/28 03:48:27;;;;;;;548.70;136.02;;;5.70;99.90;;;;;;5076807;28;20148;-70
2021/12/28 03:50:52;;;;;;;811.17;172.07;;;5.40;99.90;;;;;;5067907;28;20052;-70
2021/12/28 03:53:18;;;;;;;642.83;150.00;;;5.20;99.90;;;;;;5066572;28;20127;-70
2021/12/28 03:55:44;;;;;;;466.85;125.47;;;5.00;99.90;;;;;;5065577;28;20104;-71
2021/12/28 03:58:09;;;;;;;871.28;182.95;;;4.90;99.90;;;;;;5064649;28;20044;-70
2021/12/28 04:00:40;;;;;;;831.25;175.98;;;4.90;99.90;;;;;;5066703;28;20048;-70
2021/12/28 04:03:06;;;;;;;322.75;88.65;;;4.80;99.90;;;;;;5066961;28;20067;-70
2021/12/28 04:05:32;;;;;;;737.70;163.88;;;4.80;99.90;;;;;;5065292;28;20201;-70
2021/12/28 04:07:57;;;;;;;811.08;175.52;;;4.70;99.90;;;;;;5066480;28;20870;-70
2021/12/28 04:10:32;;;;;;;471.00;116.95;;;4.70;99.90;;;;;;5061212;28;20128;-70
2021/12/28 04:13:00;;;;;;;849.70;177.90;;;4.60;99.90;;;;;;5069529;28;20497;-70
2021/12/28 04:15:25;;;;;;;873.50;182.23;;;4.60;99.90;;;;;;5069203;28;20639;-70
2021/12/28 04:17:51;;;;;;;845.80;175.75;;;4.60;99.90;;;;;;5064970;28;20048;-70
2021/12/28 04:20:20;;;;;;;945.70;185.88;;;4.50;99.90;;;;;;5058776;28;20060;-70
2021/12/28 04:22:45;;;;;;;;;;;4.50;99.90;;;;;;5070470;28;20048;-70
2021/12/28 04:25:14;;;;;;;827.92;170.48;;;4.50;99.90;;;;;;5088090;28;19924;-70
2021/12/28 04:27:41;;;;;;;591.22;133.88;;;4.40;99.90;;;;;;5068619;28;20051;-70
2021/12/28 04:30:08;;;;;;;776.00;169.50;;;4.50;99.90;;;;;;5071348;28;20055;-70
2021/12/28 04:32:34;;;;;;;718.40;152.88;;;4.50;99.90;;;;;;5067012;28;20054;-70
2021/12/28 04:35:00;;;;;;;727.38;160.48;;;4.50;99.90;;;;;;5068127;28;20052;-70
2021/12/28 04:37:26;;;;;;;602.78;143.98;;;4.60;99.90;;;;;;5070193;28;20056;-70
2021/12/28 04:39:52;;;;;;;442.40;109.72;;;4.60;99.90;;;;;;5062045;28;20045;-71
2021/12/28 04:42:18;;;;;;;554.90;129.90;;;4.60;99.90;;;;;;5065250;28;20056;-71
2021/12/28 04:44:45;;;;;;;546.90;129.60;;;4.70;99.90;;;;;;5049297;28;20052;-71
2021/12/28 04:47:11;;;;;;;634.92;145.55;;;4.70;99.90;;;;;;5063312;28;20067;-71
2021/12/28 04:49:37;;;;;;;345.73;98.35;;;4.70;99.90;;;;;;5061143;28;20045;-71
2021/12/28 04:52:04;;;;;;;418.40;103.18;;;4.70;99.90;;;;;;5066555;28;20032;-71
2021/12/28 04:54:30;;;;;;;609.93;128.53;;;4.70;99.90;;;;;;5074623;28;20056;-70
2021/12/28 04:56:56;;;;;;;551.78;126.43;;;4.70;99.90;;;;;;5066948;28;20044;-70
2021/12/28 04:59:21;;;;;;;509.85;119.00;;;4.60;99.90;;;;;;5069996;28;20127;-71
2021/12/28 05:01:47;;;;;;;368.23;95.47;;;4.50;99.90;;;;;;5068480;28;20037;-70
2021/12/28 05:04:14;;;;;;;310.27;87.72;;;4.40;99.90;;;;;;5074637;28;20204;-70
2021/12/28 05:06:40;;;;;;;340.85;88.82;;;4.40;99.90;;;;;;5079282;28;20051;-71
2021/12/28 05:09:08;;;;;;;534.53;122.78;;;4.40;99.90;;;;;;5074744;28;20512;-71
2021/12/28 05:11:35;;;;;;;401.45;93.15;;;4.40;99.90;;;;;;5069485;28;20044;-70
2021/12/28 05:14:01;;;;;;;531.33;116.43;;;4.40;99.90;;;;;;5071167;28;20127;-71
2021/12/28 05:16:30;;;;;;;585.13;127.55;;;4.30;99.90;;;;;;5070959;28;20091;-71
2021/12/28 05:18:57;;;;;;;335.98;88.35;;;4.30;99.90;;;;;;5070424;28;20048;-71
2021/12/28 05:21:23;;;;;;;177.82;63.53;;;4.40;99.90;;;;;;5068159;28;20063;-71
2021/12/28 05:23:49;;;;;;;420.60;101.07;;;4.30;99.90;;;;;;5070669;28;20044;-70
2021/12/28 05:26:15;;;;;;;431.80;96.85;;;4.30;99.90;;;;;;5070850;28;20055;-71
2021/12/28 05:28:41;;;;;;;198.80;65.28;;;4.40;99.90;;;;;;5066886;28;20045;-71
2021/12/28 05:31:07;;;;;;;307.40;81.85;;;4.40;99.90;;;;;;5069040;28;20048;-71
2021/12/28 05:33:33;;;;;;;242.00;72.78;;;4.40;99.90;;;;;;5069545;28;20139;-71
2021/12/28 05:35:58;;;;;;;417.00;97.18;;;4.40;99.90;;;;;;5069704;28;20119;-71
2021/12/28 05:38:24;;;;;;;527.85;119.07;;;4.40;99.90;;;;;;5070259;28;20052;-71
2021/12/28 05:40:50;;;;;;;402.80;98.45;;;4.50;99.90;;;;;;5073888;28;20055;-71
2021/12/28 05:43:15;;;;;;;359.63;90.85;;;4.50;99.90;;;;;;5071567;28;20132;-71
2021/12/28 05:45:42;;;;;;;373.65;95.03;;;4.50;99.90;;;;;;5067848;28;20055;-71
2021/12/28 05:48:08;;;;;;;354.17;92.78;;;4.50;99.90;;;;;;5068501;28;20182;-71
2021/12/28 05:50:34;;;;;;;313.52;88.80;;;4.60;99.90;;;;;;5068453;28;20771;-70
2021/12/28 05:52:59;;;;;;;404.88;94.57;;;4.50;99.90;;;;;;5066771;28;20535;-71
2021/12/28 05:55:25;;;;;;;483.08;107.85;;;4.50;99.90;;;;;;5067990;28;20386;-71
2021/12/28 05:57:50;;;;;;;478.98;109.47;;;4.50;99.90;;;;;;5071398;28;20408;-70
2021/12/28 06:00:17;;;;;;;344.38;86.85;;;4.60;99.90;;;;;;5052043;28;20045;-70
2021/12/28 06:02:42;;;;;;;463.55;108.40;;;4.50;99.90;;;;;;5072988;28;20818;-70
2021/12/28 06:05:08;;;;;;;310.08;83.90;;;4.60;99.90;;;;;;5067696;28;20051;-70
2021/12/28 06:07:34;;;;;;;447.45;104.30;;;4.50;99.90;;;;;;5060762;28;20560;-70
2021/12/28 06:10:00;;;;;;;343.77;91.38;;;4.60;99.90;;;;;;5056455;28;20094;-71
2021/12/28 06:12:26;;;;;;;288.83;84.30;;;4.60;99.90;;;;;;5067358;28;20256;-71
2021/12/28 06:14:52;;;;;;;341.42;87.70;;;4.60;99.90;;;;;;5063201;28;20040;-71
2021/12/28 06:17:18;;;;;;;311.88;86.82;;;4.60;99.90;;;;;;5064402;28;20041;-71
2021/12/28 06:19:43;;;;;;;364.30;92.03;;;4.60;99.90;;;;;;5065260;28;20047;-71
2021/12/28 06:22:09;;;;;;;314.90;86.53;;;4.50;99.90;;;;;;5072451;28;20056;-71
2021/12/28 06:24:34;;;;;;;305.23;85.45;;;4.50;99.90;;;;;;5066318;28;20048;-71
2021/12/28 06:27:00;;;;;;;211.63;69.95;;;4.50;99.90;;;;;;5068545;28;20044;-71
2021/12/28 06:29:26;;;;;;;282.35;82.82;;;4.50;99.90;;;;;;5068585;28;20052;-71
2021/12/28 06:31:52;;;;;;;267.00;81.72;;;4.50;99.90;;;;;;5069293;28;20516;-71
2021/12/28 06:34:17;;;;;;;214.85;71.32;;;4.50;99.90;;;;;;5066162;28;20055;-71
2021/12/28 06:36:43;;;;;;;189.73;66.20;;;4.60;99.90;;;;;;5067310;28;20051;-70
2021/12/28 06:39:10;;;;;;;192.00;70.45;;;4.60;99.90;;;;;;5046954;28;20040;-71
2021/12/28 06:41:38;;;;;;;235.25;74.93;;;4.60;99.90;;;;;;5064414;28;20105;-70
2021/12/28 06:44:05;;;;;;;209.73;73.85;;;4.60;99.90;;;;;;5067644;28;20055;-71
2021/12/28 06:46:31;;;;;;;258.83;78.18;;;4.50;99.90;;;;;;5066374;28;20511;-71
2021/12/28 06:48:57;;;;;;;163.73;64.00;;;4.60;99.90;;;;;;5065654;28;20044;-70
2021/12/28 06:51:23;;;;;;;219.80;73.57;;;4.50;99.90;;;;;;5070203;28;20538;-71
2021/12/28 06:53:49;;;;;;;199.90;70.55;;;4.50;99.90;;;;;;5066098;28;20048;-71
2021/12/28 06:56:14;;;;;;;203.73;71.65;;;4.60;99.90;;;;;;5065822;28;20084;-71
2021/12/28 06:58:40;;;;;;;183.05;67.38;;;4.50;99.90;;;;;;5066064;28;20130;-71
2021/12/28 07:01:07;;;;;;;167.65;63.53;;;4.60;99.90;;;;;;5063882;28;20524;-71
2021/12/28 07:03:32;;;;;;;182.75;64.22;;;4.60;99.90;;;;;;5062882;28;20065;-71
2021/12/28 07:05:59;;;;;;;170.77;65.88;;;4.50;99.90;;;;;;5062393;28;20147;-71
2021/12/28 07:08:25;;;;;;;174.20;64.03;;;4.60;99.90;;;;;;5060019;28;20124;-71
2021/12/28 07:10:51;;;;;;;161.73;62.85;;;4.50;99.90;;;;;;5060122;28;20052;-71
2021/12/28 07:13:17;;;;;;;189.52;63.35;;;4.60;99.90;;;;;;5060850;28;20048;-70
2021/12/28 07:15:43;;;;;;;156.13;60.47;;;4.60;99.90;;;;;;5062813;28;20052;-71
2021/12/28 07:18:08;;;;;;;129.95;56.33;;;4.60;99.90;;;;;;5060908;28;20041;-71
2021/12/28 07:20:34;;;;;;;133.55;55.78;;;4.50;99.90;;;;;;5061382;28;20052;-71
2021/12/28 07:23:00;;;;;;;123.70;56.38;;;4.60;99.90;;;;;;5060602;28;20123;-71
2021/12/28 07:25:26;;;;;;;122.30;56.28;;;4.60;99.90;;;;;;5060491;28;20048;-71
2021/12/28 07:27:52;;;;;;;112.65;51.20;;;4.50;99.90;;;;;;5060558;28;20039;-71
2021/12/28 07:30:17;;;;;;;112.82;52.03;;;4.60;99.90;;;;;;5045176;28;20052;-71
2021/12/28 07:32:43;;;;;;;100.05;52.92;;;4.50;99.90;;;;;;5062274;28;20871;-70
2021/12/28 07:35:10;;;;;;;101.90;45.42;;;4.60;99.90;;;;;;5064516;28;20248;-71
2021/12/28 07:37:36;;;;;;;94.68;45.97;;;4.60;99.90;;;;;;5064986;28;20048;-71
2021/12/28 07:40:04;;;;;;;87.95;43.33;;;4.60;99.90;;;;;;5067678;28;22519;-71
2021/12/28 07:42:29;;;;;;;92.82;45.80;;;4.60;99.90;;;;;;5067791;28;20523;-70
2021/12/28 07:44:55;;;;;;;79.60;41.13;;;4.60;99.90;;;;;;5065476;28;20053;-70
2021/12/28 07:47:21;;;;;;;82.90;39.33;;;4.60;99.90;;;;;;5071209;28;20040;-70
2021/12/28 07:49:47;;;;;;;71.80;37.55;;;4.50;99.90;;;;;;5069797;28;20044;-71
2021/12/28 07:52:13;;;;;;;87.70;41.08;;;4.50;99.90;;;;;;5068776;28;20060;-71
2021/12/28 07:54:38;;;;;;;81.28;39.38;;;4.50;99.90;;;;;;5061470;28;20037;-71
2021/12/28 07:57:04;;;;;;;71.35;36.70;;;4.60;99.90;;;;;;5076134;28;20113;-70
2021/12/28 07:59:30;;;;;;;75.28;38.78;;;4.60;99.90;;;;;;5078664;28;20082;-70
2021/12/28 08:01:55;;;;;;;76.70;37.63;;;4.70;99.90;;;;;;5072621;28;20048;-70
2021/12/28 08:04:21;;;;;;;77.85;40.22;;;4.70;99.90;;;;;;5066662;28;20056;-70
2021/12/28 08:06:47;;;;;;;76.90;37.63;;;4.70;99.90;;;;;;5070411;28;20098;-71
2021/12/28 08:09:13;;;;;;;67.82;34.92;;;4.70;99.90;;;;;;5071335;28;20049;-71
2021/12/28 08:11:38;;;;;;;67.78;33.70;;;4.70;99.90;;;;;;5071468;28;20120;-70
2021/12/28 08:14:04;;;;;;;62.13;33.15;;;4.70;99.90;;;;;;5071251;28;20137;-70
2021/12/28 08:16:30;;;;;;;67.57;34.97;;;4.80;99.90;;;;;;5067506;28;20734;-70
2021/12/28 08:18:56;;;;;;;63.65;33.63;;;4.80;99.90;;;;;;5063604;28;20556;-70
2021/12/28 08:21:22;;;;;;;64.60;32.85;;;4.90;99.90;;;;;;5070130;28;20052;-70
2021/12/28 08:23:47;;;;;;;63.70;31.17;;;4.90;99.90;;;;;;5071747;28;20056;-70
2021/12/28 08:26:16;;;;;;;53.55;31.67;;;5.00;99.90;;;;;;5060692;28;20676;-70
2021/12/28 08:28:42;;;;;;;64.45;33.63;;;5.00;99.90;;;;;;5070987;28;20045;-70
2021/12/28 08:31:08;;;;;;;64.53;30.58;;;5.00;99.90;;;;;;5060743;28;20072;-70
2021/12/28 08:33:33;;;;;;;53.97;28.85;;;5.00;99.90;;;;;;5056984;28;20110;-70
2021/12/28 08:35:59;;;;;;;54.38;29.15;;;5.00;99.90;;;;;;5064074;28;20105;-70
2021/12/28 08:38:25;;;;;;;66.22;30.88;;;5.00;99.90;;;;;;5069535;28;20039;-70
2021/12/28 08:40:51;;;;;;;56.05;29.00;;;5.00;99.90;;;;;;5063571;28;20044;-70
2021/12/28 08:43:16;;;;;;;52.15;28.13;;;5.00;99.90;;;;;;5070162;28;20421;-70
2021/12/28 08:45:42;;;;;;;46.75;27.20;;;5.00;99.90;;;;;;5065532;28;20460;-70
2021/12/28 08:48:11;;;;;;;65.40;28.88;;;5.00;99.90;;;;;;5066715;28;20079;-70
2021/12/28 08:50:37;;;;;;;64.85;28.42;;;5.00;99.90;;;;;;5052176;28;20086;-70
2021/12/28 08:53:03;;;;;;;56.15;26.23;;;5.10;99.90;;;;;;5066224;28;20132;-70
2021/12/28 08:55:28;;;;;;;57.80;28.05;;;5.00;99.90;;;;;;5051980;28;20764;-70
2021/12/28 08:57:54;;;;;;;56.67;25.77;;;5.10;99.90;;;;;;5068350;28;20480;-70
2021/12/28 09:00:25;;;;;;;61.33;25.60;;;5.00;99.90;;;;;;5070898;28;20098;-71
2021/12/28 09:02:53;;;;;;;57.28;24.80;;;5.00;99.90;;;;;;5066364;28;20044;-70
2021/12/28 09:05:18;;;;;;;54.60;25.10;;;5.00;99.90;;;;;;5069731;28;20588;-70
2021/12/28 09:07:44;;;;;;;49.78;23.35;;;5.10;99.90;;;;;;5068356;28;20086;-70
2021/12/28 09:10:10;;;;;;;43.30;22.15;;;5.10;99.90;;;;;;5067595;28;20143;-70
2021/12/28 09:12:37;;;;;;;43.90;23.75;;;5.20;99.90;;;;;;5066994;28;20049;-70
2021/12/28 09:15:05;;;;;;;49.55;23.98;;;5.20;99.90;;;;;;5068272;28;20075;-70
2021/12/28 09:17:33;;;;;;;41.63;20.83;;;5.20;99.90;;;;;;5067216;28;20055;-70
2021/12/28 09:19:59;;;;;;;64.82;25.35;;;5.30;99.90;;;;;;5070172;28;20466;-70
2021/12/28 09:22:25;;;;;;;45.88;22.15;;;5.40;99.90;;;;;;5070268;28;20047;-70
2021/12/28 09:24:50;;;;;;;49.38;22.08;;;5.50;99.90;;;;;;5053182;28;20116;-70
2021/12/28 09:27:16;;;;;;;47.90;22.55;;;5.60;99.90;;;;;;5065290;28;20044;-70
2021/12/28 09:29:42;;;;;;;42.72;23.40;;;5.70;99.90;;;;;;5067387;28;20463;-71
2021/12/28 09:32:08;;;;;;;42.08;22.02;;;5.70;99.90;;;;;;5068762;28;20048;-70
2021/12/28 09:34:34;;;;;;;53.88;21.75;;;5.80;99.90;;;;;;5068211;28;20044;-70
2021/12/28 09:37:00;;;;;;;56.22;23.33;;;5.80;99.90;;;;;;5067769;28;20063;-70
2021/12/28 09:39:28;;;;;;;53.30;22.15;;;5.80;99.90;;;;;;5071530;28;20048;-70
2021/12/28 09:41:58;;;;;;;57.08;21.23;;;5.90;99.90;;;;;;5078132;28;20040;-70
2021/12/28 09:44:25;;;;;;;39.65;20.25;;;5.90;99.90;;;;;;5066078;28;20512;-70
2021/12/28 09:46:51;;;;;;;48.63;21.08;;;5.90;99.90;;;;;;5068135;28;20048;-70
2021/12/28 09:49:17;;;;;;;35.13;19.80;;;5.90;99.90;;;;;;5074772;28;20055;-70
2021/12/28 09:51:44;;;;;;;42.92;20.63;;;5.90;99.90;;;;;;5076682;28;20076;-71
2021/12/28 09:54:09;;;;;;;34.90;20.08;;;5.90;99.90;;;;;;5067743;28;20643;-70
2021/12/28 09:56:36;;;;;;;43.17;18.65;;;5.90;99.90;;;;;;5070040;28;20147;-70
2021/12/28 09:59:06;;;;;;;40.58;19.80;;;6.00;99.90;;;;;;5069238;28;20052;-70
2021/12/28 10:01:31;;;;;;;47.63;21.23;;;6.00;99.90;;;;;;5068348;28;20128;-70
2021/12/28 10:03:59;;;;;;;53.78;18.83;;;6.00;99.90;;;;;;5053176;28;20131;-70
2021/12/28 10:06:28;;;;;;;39.15;19.73;;;6.10;99.90;;;;;;5068344;28;20059;-70
2021/12/28 10:09:06;;;;;;;36.17;19.27;;;6.10;99.90;;;;;;5065662;28;20047;-70
2021/12/28 10:11:37;;;;;;;47.08;20.85;;;6.20;99.90;;;;;;5066016;28;20040;-70
2021/12/28 10:14:21;;;;;;;43.85;19.75;;;6.20;99.90;;;;;;5066562;28;20129;-70
2021/12/28 10:16:51;;;;;;;50.28;18.75;;;6.30;99.90;;;;;;5069469;28;20492;-70
2021/12/28 10:19:40;;;;;;;40.85;18.38;;;6.30;99.90;;;;;;5063249;28;20061;-70
2021/12/28 10:22:24;;;;;;;49.45;20.00;;;6.30;99.90;;;;;;5066424;28;20408;-70
2021/12/28 10:25:12;;;;;;;28.60;17.55;;;6.40;99.90;;;;;;5065001;28;20056;-70
2021/12/28 10:27:43;;;;;;;42.92;19.35;;;6.50;99.90;;;;;;5064417;28;20119;-70
2021/12/28 10:30:17;;;;;;;46.40;19.63;;;6.50;99.90;;;;;;5067377;28;20416;-71
2021/12/28 10:32:48;;;;;;;48.90;18.60;;;6.60;99.90;;;;;;5064303;28;20100;-70
2021/12/28 10:35:17;;;;;;;36.78;16.27;;;6.60;99.90;;;;;;5065094;28;20080;-71
2021/12/28 10:37:55;;;;;;;33.90;17.05;;;6.60;99.90;;;;;;5067125;28;20504;-71
2021/12/28 10:40:37;;;;;;;42.85;18.30;;;6.60;99.90;;;;;;5068028;28;20071;-71
2021/12/28 10:43:15;;;;;;;40.42;17.25;;;6.70;99.90;;;;;;5066254;28;20124;-71
2021/12/28 10:45:44;;;;;;;40.28;18.65;;;6.60;99.90;;;;;;5057436;28;20037;-71
2021/12/28 10:48:13;;;;;;;45.53;17.48;;;6.60;99.90;;;;;;5067622;28;20054;-71
2021/12/28 10:50:47;;;;;;;41.78;18.27;;;6.60;99.90;;;;;;5066957;28;20679;-70
2021/12/28 10:53:23;;;;;;;52.00;18.40;;;6.70;99.90;;;;;;5066138;28;20044;-69
2021/12/28 10:56:00;;;;;;;52.20;20.30;;;6.70;99.90;;;;;;5065253;28;20053;-70
2021/12/28 10:58:33;;;;;;;34.97;18.10;;;6.60;99.90;;;;;;5064754;28;20702;-70
2021/12/28 11:01:06;;;;;;;37.47;17.70;;;6.60;99.90;;;;;;5065363;28;20045;-71
2021/12/28 11:03:34;;;;;;;43.42;18.75;;;6.60;99.90;;;;;;5067963;28;20045;-71
2021/12/28 11:06:06;;;;;;;34.35;18.13;;;6.70;99.90;;;;;;5065271;28;20056;-70
2021/12/28 11:08:32;;;;;;;33.33;17.20;;;6.70;99.90;;;;;;5060015;28;20048;-71
2021/12/28 11:11:05;;;;;;;44.30;19.33;;;6.70;99.90;;;;;;5064347;28;20040;-70
2021/12/28 11:13:32;;;;;;;48.88;20.08;;;6.80;99.90;;;;;;5066366;28;20052;-71
2021/12/28 11:15:59;;;;;;;45.30;19.90;;;6.80;99.90;;;;;;5068083;28;20115;-71
2021/12/28 11:18:40;;;;;;;45.33;19.42;;;6.80;99.90;;;;;;5052852;28;20041;-70
2021/12/28 11:21:31;;;;;;;54.05;19.63;;;6.80;99.90;;;;;;5068226;28;20056;-71
2021/12/28 11:24:06;;;;;;;46.03;19.17;;;6.90;99.90;;;;;;5068369;28;20052;-72
2021/12/28 11:26:34;;;;;;;46.40;18.65;;;6.90;99.90;;;;;;5069385;28;20510;-71
2021/12/28 11:29:07;;;;;;;41.38;18.33;;;6.90;99.90;;;;;;5069228;28;20044;-71
2021/12/28 11:31:38;;;;;;;45.85;19.15;;;6.90;99.90;;;;;;5063605;28;20052;-72
2021/12/28 11:34:08;;;;;;;42.58;19.02;;;6.90;99.90;;;;;;5066633;28;20041;-72
2021/12/28 11:36:37;;;;;;;35.67;18.73;;;6.90;99.90;;;;;;5065009;28;20052;-72
2021/12/28 11:39:06;;;;;;;43.55;19.52;;;6.90;99.90;;;;;;5064183;28;20116;-71
2021/12/28 11:41:32;;;;;;;39.72;19.10;;;6.90;99.90;;;;;;5069495;28;20590;-72
2021/12/28 11:43:59;;;;;;;34.53;19.25;;;6.90;99.90;;;;;;5072082;28;20098;-71
2021/12/28 11:46:25;;;;;;;47.97;21.27;;;6.90;99.90;;;;;;5070086;28;20040;-71
2021/12/28 11:48:52;;;;;;;37.67;19.02;;;7.00;99.90;;;;;;5071191;28;20515;-72
2021/12/28 11:51:20;;;;;;;36.40;19.13;;;7.00;99.90;;;;;;5070241;28;20060;-72
2021/12/28 11:53:46;;;;;;;41.08;20.48;;;7.00;99.90;;;;;;5054247;28;20421;-71
2021/12/28 11:56:15;;;;;;;38.50;19.33;;;7.00;99.90;;;;;;5070590;28;20386;-72
2021/12/28 11:59:16;;;;;;;49.28;21.63;;;7.00;99.90;;;;;;5061209;28;20501;-72
2021/12/28 12:01:50;;;;;;;45.45;20.20;;;7.00;99.90;;;;;;5067291;28;20057;-71
2021/12/28 12:04:31;;;;;;;42.95;22.15;;;7.00;99.90;;;;;;5063942;28;20557;-72
2021/12/28 12:07:17;;;;;;;41.03;20.70;;;7.00;99.90;;;;;;5068353;28;20052;-72
2021/12/28 12:09:49;;;;;;;45.50;21.30;;;7.00;99.90;;;;;;5066542;28;20052;-72
2021/12/28 12:12:20;;;;;;;51.50;22.20;;;7.00;99.90;;;;;;5069282;28;20052;-72
2021/12/28 12:14:52;;;;;;;54.17;24.58;;;7.10;99.90;;;;;;5068599;28;20052;-72
2021/12/28 12:17:30;;;;;;;47.35;22.55;;;7.10;99.90;;;;;;5070040;28;20051;-72
2021/12/28 12:20:06;;;;;;;45.45;24.75;;;7.20;99.90;;;;;;5069998;28;20150;-72
2021/12/28 12:22:32;;;;;;;47.45;23.73;;;7.10;99.90;;;;;;5067800;28;20044;-72
2021/12/28 12:25:00;;;;;;;45.03;24.00;;;7.10;99.90;;;;;;5071753;28;20048;-72
2021/12/28 12:27:55;;;;;;;45.65;23.67;;;7.10;99.90;;;;;;5069186;28;20450;-71
2021/12/28 12:30:20;;;;;;;49.53;25.17;;;7.10;99.90;;;;;;5073539;28;20059;-71
2021/12/28 12:32:58;;;;;;;46.83;23.95;;;7.10;99.90;;;;;;5063174;28;20044;-71
2021/12/28 12:35:28;;;;;;;41.05;23.98;;;7.20;99.90;;;;;;5067553;28;20382;-72
2021/12/28 12:37:53;;;;;;;52.20;25.42;;;7.20;99.90;;;;;;5067187;28;20044;-72